createdAt,value
2022-11-17T00:02:00.810Z,9.00
2022-11-17T00:04:30.780Z,9.00
2022-11-17T00:06:58.396Z,9.10
2022-11-17T00:09:25.789Z,9.10
2022-11-17T00:12:11.770Z,9.10
2022-11-17T00:14:40.755Z,9.10
2022-11-17T00:17:10.203Z,9.00
2022-11-17T00:19:55.916Z,9.00
2022-11-17T00:22:23.437Z,9.00
2022-11-17T00:24:50.779Z,8.90
2022-11-17T00:27:18.373Z,8.90
2022-11-17T00:29:45.318Z,8.90
2022-11-17T00:32:35.669Z,8.90
2022-11-17T00:35:03.346Z,8.90
2022-11-17T00:37:34.007Z,8.80
2022-11-17T00:40:01.475Z,8.80
2022-11-17T00:42:28.523Z,8.80
2022-11-17T00:44:55.424Z,8.90
2022-11-17T00:47:22.338Z,8.90
2022-11-17T00:49:49.313Z,8.80
2022-11-17T00:52:16.267Z,8.90
2022-11-17T00:54:43.190Z,8.90
2022-11-17T00:57:10.186Z,8.80
2022-11-17T00:59:37.106Z,8.90
2022-11-17T01:02:04.086Z,8.90
2022-11-17T01:04:31.038Z,8.80
2022-11-17T01:06:58.051Z,8.70
2022-11-17T01:09:25.019Z,8.60
2022-11-17T01:11:53.156Z,8.50
2022-11-17T01:14:31.136Z,8.50
2022-11-17T01:16:58.234Z,8.40
2022-11-17T01:19:25.410Z,8.40
2022-11-17T01:21:52.420Z,8.30
2022-11-17T01:24:19.395Z,8.30
2022-11-17T01:26:46.865Z,8.30
2022-11-17T01:29:17.178Z,8.20
2022-11-17T01:31:45.585Z,8.20
2022-11-17T01:34:13.155Z,8.10
2022-11-17T01:37:01.846Z,8.10
2022-11-17T01:39:30.338Z,8.10
2022-11-17T01:41:58.255Z,8.10
2022-11-17T01:44:48.283Z,8.10
2022-11-17T01:47:27.768Z,8.00
2022-11-17T01:49:59.615Z,8.00
2022-11-17T01:52:28.063Z,8.00
2022-11-17T01:54:56.768Z,8.00
2022-11-17T01:57:35.974Z,8.00
2022-11-17T02:00:07.529Z,8.00
2022-11-17T02:02:35.860Z,8.00
2022-11-17T02:05:30.187Z,8.00
2022-11-17T02:07:59.874Z,8.00
2022-11-17T02:10:30.590Z,8.10
2022-11-17T02:12:58.031Z,8.10
2022-11-17T02:15:25.482Z,8.10
2022-11-17T02:17:52.986Z,8.20
2022-11-17T02:20:47.196Z,8.20
2022-11-17T02:23:53.371Z,8.20
2022-11-17T02:26:26.008Z,8.30
2022-11-17T02:29:01.181Z,8.30
2022-11-17T02:32:05.096Z,8.40
2022-11-17T02:34:59.471Z,8.40
2022-11-17T02:37:50.125Z,8.30
2022-11-17T02:40:30.273Z,8.20
2022-11-17T02:43:29.111Z,8.20
2022-11-17T02:46:05.635Z,8.20
2022-11-17T02:48:34.664Z,8.10
2022-11-17T02:51:03.683Z,8.20
2022-11-17T02:53:31.675Z,8.10
2022-11-17T02:56:01.903Z,8.10
2022-11-17T02:58:28.851Z,8.10
2022-11-17T03:01:16.029Z,8.10
2022-11-17T03:03:48.981Z,8.00
2022-11-17T03:06:38.119Z,8.00
2022-11-17T03:09:15.854Z,8.00
2022-11-17T03:11:53.422Z,8.00
2022-11-17T03:14:31.591Z,8.00
2022-11-17T03:17:17.888Z,7.90
2022-11-17T03:19:51.739Z,7.80
2022-11-17T03:22:28.683Z,7.80
2022-11-17T03:25:00.756Z,7.80
2022-11-17T03:27:37.584Z,7.70
2022-11-17T03:30:09.913Z,7.70
2022-11-17T03:32:40.249Z,7.70
2022-11-17T03:35:12.936Z,7.70
2022-11-17T03:37:46.199Z,7.70
2022-11-17T03:40:15.198Z,7.70
2022-11-17T03:42:52.638Z,7.70
2022-11-17T03:45:24.335Z,7.70
2022-11-17T03:47:57.398Z,7.80
2022-11-17T03:50:36.079Z,7.80
2022-11-17T03:53:05.073Z,8.00
2022-11-17T03:55:43.220Z,8.10
2022-11-17T03:58:16.504Z,8.20
2022-11-17T04:00:44.717Z,8.30
2022-11-17T04:03:11.597Z,8.30
2022-11-17T04:05:38.565Z,8.60
2022-11-17T04:08:05.570Z,8.80
2022-11-17T04:10:52.430Z,8.80
2022-11-17T04:13:38.046Z,8.90
2022-11-17T04:16:05.374Z,9.00
2022-11-17T04:18:32.496Z,9.00
2022-11-17T04:20:59.581Z,9.10
2022-11-17T04:23:26.862Z,9.10
2022-11-17T04:26:15.029Z,9.20
2022-11-17T04:28:47.978Z,9.20
2022-11-17T04:31:18.979Z,9.30
2022-11-17T04:34:06.414Z,9.20
2022-11-17T04:36:37.838Z,9.20
2022-11-17T04:39:04.937Z,9.20
2022-11-17T04:41:50.743Z,9.30
2022-11-17T04:44:18.332Z,9.30
2022-11-17T04:46:46.215Z,9.30
2022-11-17T04:49:14.933Z,9.30
2022-11-17T04:51:42.392Z,9.30
2022-11-17T04:54:11.984Z,9.20
2022-11-17T04:56:39.244Z,9.20
2022-11-17T04:59:06.957Z,9.10
2022-11-17T05:01:34.204Z,9.20
2022-11-17T05:04:03.269Z,9.20
2022-11-17T05:06:33.839Z,9.10
2022-11-17T05:09:04.161Z,9.10
2022-11-17T05:11:49.949Z,9.10
2022-11-17T05:14:19.848Z,9.10
2022-11-17T05:17:10.401Z,9.20
2022-11-17T05:19:45.843Z,9.20
2022-11-17T05:22:34.106Z,9.20
2022-11-17T05:25:01.304Z,9.10
2022-11-17T05:27:28.670Z,9.20
2022-11-17T05:29:55.611Z,9.20
2022-11-17T05:32:22.713Z,9.20
2022-11-17T05:34:49.723Z,9.20
2022-11-17T05:37:16.683Z,9.30
2022-11-17T05:39:43.591Z,9.40
2022-11-17T05:42:10.524Z,9.30
2022-11-17T05:44:37.532Z,9.30
2022-11-17T05:47:04.481Z,9.40
2022-11-17T05:49:31.426Z,9.50
2022-11-17T05:51:58.341Z,9.50
2022-11-17T05:54:27.001Z,9.40
2022-11-17T05:57:06.275Z,9.40
2022-11-17T05:59:33.115Z,9.40
2022-11-17T06:02:09.171Z,9.30
2022-11-17T06:04:36.328Z,9.30
2022-11-17T06:07:03.443Z,9.30
2022-11-17T06:09:36.663Z,9.20
2022-11-17T06:12:06.133Z,9.20
2022-11-17T06:14:34.552Z,9.20
2022-11-17T06:17:08.056Z,9.20
2022-11-17T06:19:45.217Z,9.10
2022-11-17T06:22:13.507Z,9.10
2022-11-17T06:24:43.255Z,9.20
2022-11-17T06:27:12.230Z,9.10
2022-11-17T06:29:44.063Z,9.10
2022-11-17T06:32:15.811Z,9.10
2022-11-17T06:34:49.118Z,9.20
2022-11-17T06:37:17.508Z,9.20
2022-11-17T06:39:44.432Z,9.10
2022-11-17T06:42:11.439Z,9.00
2022-11-17T06:44:38.377Z,8.90
2022-11-17T06:47:05.348Z,8.90
2022-11-17T06:49:32.324Z,8.90
2022-11-17T06:51:59.219Z,8.90
2022-11-17T06:54:26.213Z,8.90
2022-11-17T06:56:53.533Z,8.80
2022-11-17T06:59:20.530Z,8.70
2022-11-17T07:01:47.493Z,8.60
2022-11-17T07:04:14.517Z,8.60
2022-11-17T07:06:41.480Z,8.60
2022-11-17T07:09:08.458Z,8.50
2022-11-17T07:11:36.599Z,8.50
2022-11-17T07:14:04.097Z,8.50
2022-11-17T07:16:32.717Z,8.50
2022-11-17T07:19:03.608Z,8.50
2022-11-17T07:21:31.245Z,8.50
2022-11-17T07:23:58.285Z,8.60
2022-11-17T07:26:25.303Z,8.60
2022-11-17T07:28:52.360Z,8.60
2022-11-17T07:31:19.406Z,8.60
2022-11-17T07:33:46.536Z,8.60
2022-11-17T07:36:17.077Z,8.60
2022-11-17T07:38:45.240Z,8.60
2022-11-17T07:41:14.688Z,8.70
2022-11-17T07:43:42.604Z,8.70
2022-11-17T07:46:14.741Z,8.70
2022-11-17T07:48:43.103Z,8.70
2022-11-17T07:51:10.633Z,8.70
2022-11-17T07:53:37.632Z,8.70
2022-11-17T07:56:06.778Z,8.70
2022-11-17T07:58:34.521Z,8.70
2022-11-17T08:01:17.209Z,8.70
2022-11-17T08:03:44.651Z,8.70
2022-11-17T08:06:11.997Z,8.70
2022-11-17T08:08:39.631Z,8.70
2022-11-17T08:11:09.901Z,8.70
2022-11-17T08:13:38.204Z,8.70
2022-11-17T08:16:05.801Z,8.80
2022-11-17T08:18:33.669Z,8.70
2022-11-17T08:21:03.941Z,8.80
2022-11-17T08:23:31.184Z,8.80
2022-11-17T08:25:58.475Z,8.80
2022-11-17T08:28:25.695Z,8.70
2022-11-17T08:30:52.721Z,8.80
2022-11-17T08:33:19.751Z,8.70
2022-11-17T08:35:46.804Z,8.70
2022-11-17T08:38:18.563Z,8.60
2022-11-17T08:40:46.678Z,8.50
2022-11-17T08:43:13.679Z,8.40
2022-11-17T08:45:42.672Z,8.30
2022-11-17T08:48:09.706Z,8.30
2022-11-17T08:50:36.649Z,8.30
2022-11-17T08:53:03.686Z,8.20
2022-11-17T08:55:30.794Z,8.20
2022-11-17T08:57:57.870Z,8.20
2022-11-17T09:00:25.053Z,8.20
2022-11-17T09:02:52.079Z,8.10
2022-11-17T09:05:19.118Z,8.10
2022-11-17T09:07:46.216Z,8.10
2022-11-17T09:10:13.467Z,8.10
2022-11-17T09:12:40.435Z,8.10
2022-11-17T09:15:07.983Z,8.10
2022-11-17T09:17:35.020Z,8.00
2022-11-17T09:20:02.191Z,7.90
2022-11-17T09:22:29.199Z,7.90
2022-11-17T09:24:56.215Z,7.90
2022-11-17T09:27:23.169Z,7.90
2022-11-17T09:29:50.209Z,7.90
2022-11-17T09:32:17.391Z,7.90
2022-11-17T09:34:44.477Z,7.80
2022-11-17T09:37:11.520Z,7.90
2022-11-17T09:39:38.630Z,7.90
2022-11-17T09:42:06.019Z,7.80
2022-11-17T09:44:54.973Z,7.90
2022-11-17T09:47:49.823Z,7.80
2022-11-17T09:50:25.423Z,7.80
2022-11-17T09:53:04.558Z,7.80
2022-11-17T09:55:43.727Z,7.80
2022-11-17T09:58:15.796Z,7.80
2022-11-17T10:00:47.452Z,7.90
2022-11-17T10:03:31.061Z,7.90
2022-11-17T10:06:00.769Z,7.90
2022-11-17T10:08:40.582Z,8.00
2022-11-17T10:11:35.117Z,8.00
2022-11-17T10:14:14.287Z,8.00
2022-11-17T10:16:57.140Z,8.10
2022-11-17T10:19:32.181Z,8.10
2022-11-17T10:22:02.449Z,8.10
2022-11-17T10:24:44.350Z,8.10
2022-11-17T10:27:22.564Z,8.10
2022-11-17T10:30:08.960Z,8.10
2022-11-17T10:32:40.673Z,8.10
2022-11-17T10:35:30.789Z,8.10
2022-11-17T10:38:19.147Z,8.10
2022-11-17T10:40:51.104Z,8.00
2022-11-17T10:43:26.650Z,7.90
2022-11-17T10:46:06.369Z,7.90
2022-11-17T10:48:53.515Z,7.80
2022-11-17T10:51:25.591Z,7.80
2022-11-17T10:54:17.297Z,7.70
2022-11-17T10:56:57.669Z,7.70
2022-11-17T10:59:32.191Z,7.70
2022-11-17T11:02:19.093Z,7.60
2022-11-17T11:04:46.041Z,7.60
2022-11-17T11:07:14.096Z,7.60
2022-11-17T11:10:15.656Z,7.60
2022-11-17T11:12:45.445Z,7.50
2022-11-17T11:15:36.656Z,7.50
2022-11-17T11:18:13.663Z,7.50
2022-11-17T11:20:57.040Z,7.50
2022-11-17T11:23:43.187Z,7.50
2022-11-17T11:26:12.918Z,7.50
2022-11-17T11:28:54.784Z,7.50
2022-11-17T11:31:36.517Z,7.50
2022-11-17T11:34:29.107Z,7.50
2022-11-17T11:37:09.262Z,7.40
2022-11-17T11:39:46.688Z,7.40
2022-11-17T11:42:49.003Z,7.40
2022-11-17T11:45:34.350Z,7.50
2022-11-17T11:48:22.975Z,7.40
2022-11-17T11:51:05.910Z,7.40
2022-11-17T11:53:47.503Z,7.40
2022-11-17T11:56:23.458Z,7.40
2022-11-17T11:59:13.259Z,7.40
2022-11-17T12:02:08.251Z,7.40
2022-11-17T12:04:52.665Z,7.50
2022-11-17T12:07:24.002Z,7.40
2022-11-17T12:09:53.747Z,7.50
2022-11-17T12:12:47.269Z,7.40
2022-11-17T12:15:20.164Z,7.40
2022-11-17T12:18:18.971Z,7.40
2022-11-17T12:20:55.346Z,7.40
2022-11-17T12:23:50.317Z,7.40
2022-11-17T12:26:35.173Z,7.30
2022-11-17T12:29:22.195Z,7.30
2022-11-17T12:32:00.433Z,7.30
2022-11-17T12:34:37.217Z,7.30
2022-11-17T12:37:07.292Z,7.30
2022-11-17T12:39:53.134Z,7.30
2022-11-17T12:42:20.164Z,7.30
2022-11-17T12:44:55.431Z,7.20
2022-11-17T12:47:27.385Z,7.30
2022-11-17T12:50:22.037Z,7.30
2022-11-17T12:53:10.011Z,7.30
2022-11-17T12:55:45.791Z,7.30
2022-11-17T12:58:32.207Z,7.30
2022-11-17T13:01:05.098Z,7.30
2022-11-17T13:03:41.747Z,7.20
2022-11-17T13:09:01.074Z,7.20
2022-11-17T13:11:29.186Z,7.10
2022-11-17T13:14:10.773Z,7.10
2022-11-17T13:16:47.462Z,7.10
2022-11-17T13:19:44.137Z,7.10
2022-11-17T13:22:18.747Z,7.00
2022-11-17T13:24:48.363Z,7.00
2022-11-17T13:27:23.265Z,7.00
2022-11-17T13:29:51.749Z,6.90
2022-11-17T13:32:21.451Z,6.90
2022-11-17T13:34:53.300Z,7.00
2022-11-17T13:37:23.873Z,7.00
2022-11-17T13:40:23.090Z,7.00
2022-11-17T13:42:50.381Z,7.00
2022-11-17T13:45:17.473Z,7.00
2022-11-17T13:47:49.705Z,7.00
2022-11-17T13:50:27.106Z,7.00
2022-11-17T13:53:14.092Z,7.00
2022-11-17T13:55:46.284Z,7.00
2022-11-17T13:58:37.304Z,6.90
2022-11-17T14:01:04.386Z,6.90
2022-11-17T14:03:43.125Z,6.90
2022-11-17T14:06:11.892Z,6.90
2022-11-17T14:08:41.226Z,6.90
2022-11-17T14:11:16.454Z,6.90
2022-11-17T14:13:46.976Z,6.90
2022-11-17T14:16:38.666Z,6.90
2022-11-17T14:19:25.018Z,6.90
2022-11-17T14:22:29.531Z,6.90
2022-11-17T14:24:58.159Z,6.90
2022-11-17T14:27:31.906Z,6.90
2022-11-17T14:29:58.920Z,6.90
2022-11-17T14:32:25.873Z,7.00
2022-11-17T14:34:53.031Z,7.00
2022-11-17T14:37:20.486Z,7.00
2022-11-17T14:39:47.442Z,7.00
2022-11-17T14:42:14.570Z,7.00
2022-11-17T14:44:41.560Z,7.00
2022-11-17T14:47:08.551Z,7.00
2022-11-17T14:49:35.542Z,7.00
2022-11-17T14:52:02.930Z,7.00
2022-11-17T14:54:29.912Z,7.00
2022-11-17T14:56:56.906Z,6.90
2022-11-17T14:59:23.804Z,7.00
2022-11-17T15:01:51.933Z,7.00
2022-11-17T15:04:48.736Z,6.90
2022-11-17T15:07:06.319Z,6.90
2022-11-17T15:09:33.698Z,6.90
2022-11-17T15:12:00.907Z,6.90
2022-11-17T15:14:28.123Z,6.90
2022-11-17T15:16:55.094Z,6.90
2022-11-17T15:19:22.054Z,6.90
2022-11-17T15:21:49.040Z,6.90
2022-11-17T15:24:16.190Z,6.90
2022-11-17T15:26:43.349Z,6.90
2022-11-17T15:29:18.056Z,6.90
2022-11-17T15:31:45.512Z,6.80
2022-11-17T15:34:18.571Z,6.90
2022-11-17T15:36:46.801Z,6.90
2022-11-17T15:39:14.507Z,6.80
2022-11-17T15:41:41.716Z,6.80
2022-11-17T15:44:08.882Z,6.90
2022-11-17T15:46:36.021Z,6.90
2022-11-17T15:49:02.976Z,6.90
2022-11-17T15:51:29.975Z,6.90
2022-11-17T15:53:58.885Z,6.90
2022-11-17T15:56:31.286Z,6.90
2022-11-17T15:59:03.170Z,6.90
2022-11-17T16:01:30.997Z,6.90
2022-11-17T16:04:06.426Z,6.80
2022-11-17T16:06:35.656Z,6.80
2022-11-17T16:09:03.429Z,6.80
2022-11-17T16:11:30.507Z,6.80
2022-11-17T16:13:58.839Z,6.90
2022-11-17T16:16:31.857Z,6.90
2022-11-17T16:18:58.939Z,6.80
2022-11-17T16:21:26.309Z,6.80
2022-11-17T16:23:56.015Z,6.80
2022-11-17T16:26:26.200Z,6.80
2022-11-17T16:29:01.466Z,6.80
2022-11-17T16:31:30.607Z,6.80
2022-11-17T16:34:02.926Z,6.80
2022-11-17T16:36:36.141Z,6.80
2022-11-17T16:39:05.798Z,6.80
2022-11-17T16:41:37.995Z,6.80
2022-11-17T16:44:16.055Z,6.80
2022-11-17T16:46:45.851Z,6.80
2022-11-17T16:49:15.420Z,6.80
2022-11-17T16:51:48.451Z,6.80
2022-11-17T16:54:15.705Z,6.80
2022-11-17T16:56:42.878Z,6.90
2022-11-17T16:59:13.895Z,6.90
2022-11-17T17:01:41.190Z,6.90
2022-11-17T17:04:10.292Z,6.90
2022-11-17T17:06:40.737Z,6.90
2022-11-17T17:09:09.810Z,6.90
2022-11-17T17:11:37.699Z,6.90
2022-11-17T17:14:08.357Z,6.90
2022-11-17T17:16:37.616Z,6.90
2022-11-17T17:19:06.669Z,6.90
2022-11-17T17:21:34.465Z,6.90
2022-11-17T17:24:02.008Z,6.90
2022-11-17T17:26:31.994Z,6.90
2022-11-17T17:29:00.854Z,6.90
2022-11-17T17:31:33.680Z,6.90
2022-11-17T17:34:01.009Z,7.00
2022-11-17T17:36:28.854Z,7.00
2022-11-17T17:38:57.774Z,7.00
2022-11-17T17:41:27.313Z,6.90
2022-11-17T17:43:57.171Z,7.00
2022-11-17T17:46:24.283Z,6.90
2022-11-17T17:48:51.322Z,7.00
2022-11-17T17:51:20.527Z,6.90
2022-11-17T17:53:50.618Z,6.90
2022-11-17T17:56:19.826Z,6.90
2022-11-17T17:58:48.979Z,6.80
2022-11-17T18:01:26.176Z,6.90
2022-11-17T18:03:54.853Z,6.90
2022-11-17T18:06:22.726Z,6.90
2022-11-17T18:08:49.730Z,6.90
2022-11-17T18:11:21.118Z,6.90
2022-11-17T18:13:49.644Z,6.90
2022-11-17T18:16:24.713Z,7.00
2022-11-17T18:19:06.268Z,6.90
2022-11-17T18:21:33.526Z,6.90
2022-11-17T18:24:02.156Z,6.90
2022-11-17T18:26:34.375Z,6.90
2022-11-17T18:29:21.527Z,6.90
2022-11-17T18:31:49.550Z,6.90
2022-11-17T18:34:21.815Z,6.90
2022-11-17T18:36:53.473Z,6.90
2022-11-17T18:39:21.371Z,6.90
2022-11-17T18:41:48.348Z,6.90
2022-11-17T18:44:18.382Z,6.90
2022-11-17T18:46:46.051Z,6.90
2022-11-17T18:49:13.008Z,6.90
2022-11-17T18:51:41.111Z,6.90
2022-11-17T18:54:08.170Z,6.90
2022-11-17T18:56:36.580Z,6.90
2022-11-17T18:59:11.146Z,6.80
2022-11-17T19:01:40.247Z,6.90
2022-11-17T19:04:07.545Z,6.90
2022-11-17T19:06:34.609Z,6.90
2022-11-17T19:09:01.809Z,6.90
2022-11-17T19:11:33.652Z,6.90
2022-11-17T19:14:05.542Z,6.90
2022-11-17T19:16:33.172Z,6.90
2022-11-17T19:19:00.484Z,6.90
2022-11-17T19:21:29.801Z,6.90
2022-11-17T19:24:02.335Z,6.90
2022-11-17T19:26:31.893Z,6.90
2022-11-17T19:29:16.022Z,6.90
2022-11-17T19:31:44.621Z,6.90
2022-11-17T19:34:11.871Z,6.80
2022-11-17T19:36:39.171Z,6.80
2022-11-17T19:39:06.720Z,6.80
2022-11-17T19:41:38.397Z,6.80
2022-11-17T19:44:07.354Z,6.80
2022-11-17T19:46:36.351Z,6.80
2022-11-17T19:49:04.818Z,6.80
2022-11-17T19:51:34.224Z,6.80
2022-11-17T19:54:03.304Z,6.80
2022-11-17T19:56:30.690Z,6.80
2022-11-17T19:58:58.005Z,6.80
2022-11-17T20:01:27.815Z,6.80
2022-11-17T20:03:56.101Z,6.80
2022-11-17T20:06:27.385Z,6.80
2022-11-17T20:08:55.832Z,6.80
2022-11-17T20:11:24.942Z,6.80
2022-11-17T20:13:51.933Z,6.80
2022-11-17T20:16:21.634Z,6.80
2022-11-17T20:18:54.425Z,6.80
2022-11-17T20:21:22.019Z,6.80
2022-11-17T20:23:49.317Z,6.80
2022-11-17T20:26:24.805Z,6.80
2022-11-17T20:28:52.458Z,6.80
2022-11-17T20:31:24.900Z,6.80
2022-11-17T20:33:56.441Z,6.90
2022-11-17T20:36:23.659Z,6.90
2022-11-17T20:38:53.901Z,6.90
2022-11-17T20:41:23.363Z,6.80
2022-11-17T20:43:52.539Z,6.90
2022-11-17T20:46:20.522Z,6.90
2022-11-17T20:48:48.039Z,6.90
2022-11-17T20:51:17.216Z,6.90
2022-11-17T20:53:44.406Z,6.90
2022-11-17T20:56:13.386Z,7.00
2022-11-17T20:58:40.763Z,7.00
2022-11-17T21:01:09.725Z,7.00
2022-11-17T21:03:37.308Z,7.00
2022-11-17T21:06:05.129Z,7.00
2022-11-17T21:08:35.598Z,7.00
2022-11-17T21:11:11.339Z,7.00
2022-11-17T21:13:38.456Z,7.00
2022-11-17T21:16:07.358Z,7.00
2022-11-17T21:18:35.802Z,7.00
2022-11-17T21:21:04.757Z,7.00
2022-11-17T21:23:32.367Z,7.00
2022-11-17T21:26:04.048Z,7.10
2022-11-17T21:28:31.228Z,7.10
2022-11-17T21:31:12.976Z,7.10
2022-11-17T21:33:40.205Z,7.10
2022-11-17T21:36:27.028Z,7.10
2022-11-17T21:38:54.889Z,7.10
2022-11-17T21:41:24.377Z,7.10
2022-11-17T21:43:53.124Z,7.10
2022-11-17T21:46:23.049Z,7.10
2022-11-17T21:48:51.303Z,7.10
2022-11-17T21:51:22.143Z,7.10
2022-11-17T21:53:54.297Z,7.10
2022-11-17T21:56:21.836Z,7.10
2022-11-17T21:58:48.734Z,7.20
2022-11-17T22:01:16.229Z,7.10
2022-11-17T22:03:43.820Z,7.20
2022-11-17T22:06:18.134Z,7.20
2022-11-17T22:08:46.396Z,7.20
2022-11-17T22:11:38.141Z,7.20
2022-11-17T22:14:15.850Z,7.20
2022-11-17T22:16:46.171Z,7.20
2022-11-17T22:19:15.092Z,7.20
2022-11-17T22:21:43.144Z,7.20
2022-11-17T22:24:11.751Z,7.20
2022-11-17T22:26:41.246Z,7.30
2022-11-17T22:29:15.870Z,7.20
2022-11-17T22:31:44.196Z,7.30
2022-11-17T22:34:12.104Z,7.20
2022-11-17T22:36:39.118Z,7.20
2022-11-17T22:39:06.223Z,7.20
2022-11-17T22:41:33.161Z,7.30
2022-11-17T22:44:00.562Z,7.30
2022-11-17T22:46:28.909Z,7.20
2022-11-17T22:48:56.177Z,7.20
2022-11-17T22:51:42.861Z,7.30
2022-11-17T22:54:09.942Z,7.30
2022-11-17T22:56:37.003Z,7.20
2022-11-17T22:59:04.295Z,7.30
2022-11-17T23:01:31.550Z,7.30
2022-11-17T23:03:58.963Z,7.30
2022-11-17T23:06:29.644Z,7.30
2022-11-17T23:08:58.277Z,7.30
2022-11-17T23:11:41.078Z,7.30
2022-11-17T23:14:11.107Z,7.30
2022-11-17T23:16:39.157Z,7.30
2022-11-17T23:19:06.516Z,7.30
2022-11-17T23:21:33.630Z,7.30
2022-11-17T23:24:00.656Z,7.30
2022-11-17T23:26:27.792Z,7.30
2022-11-17T23:28:54.739Z,7.30
2022-11-17T23:31:21.689Z,7.30
2022-11-17T23:33:48.962Z,7.30
2022-11-17T23:36:18.975Z,7.30
2022-11-17T23:38:46.629Z,7.40
2022-11-17T23:41:15.694Z,7.30
2022-11-17T23:43:43.085Z,7.40
2022-11-17T23:46:13.619Z,7.40
2022-11-17T23:48:41.731Z,7.40
2022-11-17T23:51:14.172Z,7.30
2022-11-17T23:53:41.186Z,7.30
2022-11-17T23:56:09.519Z,7.30
2022-11-17T23:58:36.763Z,7.40
